Главная страница
METAR-TAF:

METAR-TAF

Аэропорты :

Норрчёпинг, Швеция

широта: 58-35N, долгота: 016-09E, высота над уровнем моря: 34 м

Текущие метеонаблюдения

Эта сводка был подготовлена 29 минут назад, в 19:20 UTC
Ветер 3 Узел от западный-юго-западный
Температура 18°C
Влажность 73%
Давление 1010 hPa
Видимость 10 км и более

METAR: ESSP 251920Z AUTO 24003KT 9999 NCD 18/13 Q1010

Время: 21:49 (19:49 UTC)

Прогноз

Эта сводка был подготовлена 8 часа и 19 минут назад, в 11:30 UTC
Прогноз действительный с 25-го 12 UTC до 25-го 15 UTC
Ветер 7 Узел от западный
Видимость 10 км и более
Отдельные облака на высоте 3500 фута

TAF: ESSP 251130Z 2512/2515 27007KT 9999 SCT035

Метеонаблюдения и прогнозы для более 4000 аэропортов (сводки METAR и TAF).

Имеющиеся станции представлены на карте желтыми и красными точками.

Чтобы увидеть название станции, наведите на нее мышь.

Затем щелкните, чтобы увидеть метеонаблюдения и метеопрогнозы.

Управление картой: чтобы увеличить масштаб, щелкните зеленые кнопки с черным крестиком; чтобы уменьшить масштаб, щелкните зеленую кнопку с тире; для просмотра соседних карт щелкайте зеленые стрелки.


METAR-TAF: